Chiniot, Pakistan
Current Conditions -  °F | °C
As of 1:55 PM on Monday 22 Dec 2014 (Local Time) from OPLA Reporting Station
Haze Haze  
Wind Chill: 48°   Ceiling: Unl
Heat Index: 48°   Visibility: 0.93mi
Dew Point: 45°   Wind: 3mph
Humidity: 87%   Direction: 70°ENE
Pressure: 30"   Gusts: NA
Location:  31.72°N, 72.98°E
Report Text: OPLA 220855Z 07003KT 1500 BR VV/// 09/07 Q1016 BECMNG 1000A29.97
Loading
Personal Weather Stations






























Interactive Weather Map New forecast layout! Learn more

10-Day Weather Forecast

Advertisements
Track Severe Weather on mobile